createdAt,value
2023-01-25T00:02:05.945Z,102451.52
2023-01-25T00:04:53.854Z,102456.88
2023-01-25T00:07:40.567Z,102461.38
2023-01-25T00:10:27.426Z,102459.48
2023-01-25T00:13:13.715Z,102460.98
2023-01-25T00:16:05.473Z,102462.06
2023-01-25T00:18:52.338Z,102463.23
2023-01-25T00:21:39.835Z,102457.77
2023-01-25T00:24:26.259Z,102451.41
2023-01-25T00:27:12.887Z,102446.23
2023-01-25T00:29:59.725Z,102442.38
2023-01-25T00:32:59.074Z,102437.73
2023-01-25T00:35:45.748Z,102441.52
2023-01-25T00:38:34.891Z,102441.36
2023-01-25T00:41:21.353Z,102441.77
2023-01-25T00:44:08.462Z,102447.29
2023-01-25T00:46:54.885Z,102438.38
2023-01-25T00:49:43.089Z,102432.42
2023-01-25T00:52:29.796Z,102428.11
2023-01-25T00:55:16.700Z,102426.00
2023-01-25T00:58:03.412Z,102419.46
2023-01-25T01:00:52.536Z,102415.18
2023-01-25T01:03:39.932Z,102415.79
2023-01-25T01:06:26.727Z,102412.44
2023-01-25T01:09:15.584Z,102415.90
2023-01-25T01:12:01.996Z,102420.94
2023-01-25T01:14:48.871Z,102412.87
2023-01-25T01:17:35.518Z,102413.38
2023-01-25T01:20:22.395Z,102415.33
2023-01-25T01:23:09.278Z,102419.65
2023-01-25T01:25:56.331Z,102414.49
2023-01-25T01:28:43.755Z,102417.11
2023-01-25T01:31:30.497Z,102418.70
2023-01-25T01:34:17.022Z,102414.69
2023-01-25T01:37:03.775Z,102412.95
2023-01-25T01:39:52.251Z,102408.66
2023-01-25T01:43:03.912Z,102406.82
2023-01-25T01:46:00.336Z,102399.14
2023-01-25T01:49:16.573Z,102399.63
2023-01-25T01:52:11.704Z,102403.95
2023-01-25T01:55:18.245Z,102404.30
2023-01-25T01:58:07.794Z,102399.36
2023-01-25T02:00:54.411Z,102401.94
2023-01-25T02:03:41.857Z,102399.41
2023-01-25T02:06:51.541Z,102399.05
2023-01-25T02:09:38.377Z,102393.11
2023-01-25T02:12:25.417Z,102387.59
2023-01-25T02:15:12.575Z,102385.17
2023-01-25T02:17:59.845Z,102383.29
2023-01-25T02:20:50.592Z,102380.73
2023-01-25T02:23:47.392Z,102375.05
2023-01-25T02:26:33.870Z,102371.10
2023-01-25T02:29:24.164Z,102373.19
2023-01-25T02:32:10.945Z,102370.59
2023-01-25T02:34:57.589Z,102368.71
2023-01-25T02:37:44.509Z,102368.02
2023-01-25T02:40:35.075Z,102368.08
2023-01-25T02:43:24.934Z,102370.52
2023-01-25T02:46:21.120Z,102368.52
2023-01-25T02:49:09.248Z,102363.51
2023-01-25T02:51:57.475Z,102363.00
2023-01-25T02:54:44.509Z,102365.20
2023-01-25T02:57:30.917Z,102360.77
2023-01-25T03:00:17.826Z,102360.78
2023-01-25T03:03:04.519Z,102358.44
2023-01-25T03:05:51.245Z,102354.33
2023-01-25T03:08:38.005Z,102348.48
2023-01-25T03:11:24.790Z,102336.96
2023-01-25T03:14:11.532Z,102334.23
2023-01-25T03:16:58.330Z,102328.56
2023-01-25T03:19:45.040Z,102322.67
2023-01-25T03:22:32.158Z,102323.09
2023-01-25T03:25:18.741Z,102328.20
2023-01-25T03:28:05.548Z,102323.34
2023-01-25T03:30:57.056Z,102318.59
2023-01-25T03:33:43.663Z,102309.98
2023-01-25T03:36:30.483Z,102297.19
2023-01-25T03:39:17.157Z,102314.80
2023-01-25T03:42:04.144Z,102314.11
2023-01-25T03:44:50.478Z,102309.75
2023-01-25T03:47:37.132Z,102304.75
2023-01-25T03:50:23.813Z,102312.98
2023-01-25T04:07:23.465Z,102299.65
2023-01-25T04:10:10.253Z,102285.20
2023-01-25T04:12:55.970Z,102290.45
2023-01-25T04:15:41.086Z,102292.48
2023-01-25T04:18:26.118Z,102286.41
2023-01-25T04:21:11.618Z,102292.59
2023-01-25T04:23:56.734Z,102281.75
2023-01-25T04:26:42.200Z,102290.19
2023-01-25T04:29:40.124Z,102286.58
2023-01-25T04:32:26.657Z,102279.21
2023-01-25T04:35:12.486Z,102280.20
2023-01-25T04:37:59.153Z,102276.38
2023-01-25T04:40:45.121Z,102283.95
2023-01-25T04:43:30.576Z,102278.25
2023-01-25T04:46:15.975Z,102277.92
2023-01-25T04:49:01.590Z,102278.41
2023-01-25T04:51:46.941Z,102275.55
2023-01-25T04:54:32.164Z,102272.82
2023-01-25T04:57:17.838Z,102273.18
2023-01-25T05:00:03.599Z,102273.62
2023-01-25T05:02:49.338Z,102267.11
2023-01-25T05:05:34.589Z,102268.27
2023-01-25T05:08:19.985Z,102271.23
2023-01-25T05:11:05.232Z,102274.56
2023-01-25T05:13:51.437Z,102275.11
2023-01-25T05:16:36.810Z,102272.93
2023-01-25T05:19:57.990Z,102272.06
2023-01-25T05:22:43.447Z,102264.21
2023-01-25T05:25:48.226Z,102264.55
2023-01-25T05:28:33.391Z,102269.73
2023-01-25T05:31:18.800Z,102265.59
2023-01-25T05:34:04.418Z,102265.59
2023-01-25T05:36:49.933Z,102270.89
2023-01-25T05:39:35.437Z,102265.08
2023-01-25T05:42:20.464Z,102263.55
2023-01-25T05:45:06.910Z,102260.63
2023-01-25T05:47:53.751Z,102261.84
2023-01-25T05:50:39.205Z,102262.84
2023-01-25T05:53:28.164Z,102263.68
2023-01-25T05:56:13.408Z,102261.36
2023-01-25T05:59:00.502Z,102261.88
2023-01-25T06:01:46.335Z,102259.64
2023-01-25T06:04:31.791Z,102252.25
2023-01-25T06:07:18.205Z,102245.44
2023-01-25T06:10:04.407Z,102238.59
2023-01-25T06:12:49.590Z,102239.97
2023-01-25T06:15:34.983Z,102236.36
2023-01-25T06:18:20.358Z,102233.42
2023-01-25T06:21:05.901Z,102235.52
2023-01-25T06:23:51.345Z,102237.89
2023-01-25T06:34:08.108Z,102246.02
2023-01-25T06:36:54.607Z,102252.63
2023-01-25T06:39:41.500Z,102254.14
2023-01-25T06:42:28.034Z,102246.57
2023-01-25T06:45:14.594Z,102236.57
2023-01-25T06:48:01.652Z,102235.85
2023-01-25T06:50:54.146Z,102241.85
2023-01-25T06:53:43.509Z,102237.23
2023-01-25T06:56:30.530Z,102233.82
2023-01-25T06:59:17.528Z,102231.41
2023-01-25T07:02:04.401Z,102229.14
2023-01-25T07:04:51.022Z,102225.29
2023-01-25T07:07:37.446Z,102221.98
2023-01-25T07:10:24.341Z,102215.32
2023-01-25T07:13:10.866Z,102213.59
2023-01-25T07:16:01.178Z,102211.23
2023-01-25T07:18:48.237Z,102208.28
2023-01-25T07:21:35.491Z,102208.11
2023-01-25T07:24:27.036Z,102202.75
2023-01-25T07:27:13.735Z,102201.30
2023-01-25T07:30:00.535Z,102199.73
2023-01-25T07:32:47.270Z,102198.56
2023-01-25T07:35:33.984Z,102210.17
2023-01-25T07:38:20.756Z,102208.09
2023-01-25T07:41:10.654Z,102203.08
2023-01-25T07:43:57.074Z,102202.42
2023-01-25T07:46:43.778Z,102195.56
2023-01-25T07:49:30.655Z,102199.00
2023-01-25T07:52:17.452Z,102198.86
2023-01-25T07:55:05.346Z,102195.07
2023-01-25T07:57:58.583Z,102197.31
2023-01-25T08:00:45.415Z,102198.55
2023-01-25T08:03:32.061Z,102200.05
2023-01-25T08:06:27.413Z,102197.16
2023-01-25T08:09:20.025Z,102194.95
2023-01-25T08:12:08.753Z,102192.63
2023-01-25T08:14:55.448Z,102190.27
2023-01-25T08:17:42.148Z,102194.05
2023-01-25T08:20:29.277Z,102191.10
2023-01-25T08:23:16.082Z,102189.21
2023-01-25T08:26:04.696Z,102187.44
2023-01-25T08:28:53.903Z,102180.77
2023-01-25T08:31:48.223Z,102182.48
2023-01-25T08:34:35.241Z,102177.67
2023-01-25T08:37:21.942Z,102175.54
2023-01-25T08:40:10.120Z,102170.61
2023-01-25T08:42:57.224Z,102166.31
2023-01-25T08:51:22.189Z,102166.43
2023-01-25T08:54:13.029Z,102165.70
2023-01-25T08:57:01.918Z,102157.56
2023-01-25T08:59:53.186Z,102160.64
2023-01-25T09:02:40.400Z,102163.52
2023-01-25T09:05:26.875Z,102157.44
2023-01-25T09:08:14.068Z,102152.51
2023-01-25T09:11:08.815Z,102152.66
2023-01-25T09:13:57.358Z,102150.82
2023-01-25T09:16:44.091Z,102146.40
2023-01-25T09:19:31.600Z,102141.17
2023-01-25T09:22:19.610Z,102147.74
2023-01-25T09:28:11.514Z,102141.01
2023-01-25T09:31:19.913Z,102139.86
2023-01-25T09:34:08.756Z,102135.48
2023-01-25T09:36:55.764Z,102127.00
2023-01-25T09:39:43.587Z,102120.42
2023-01-25T09:42:47.418Z,102114.39
2023-01-25T09:45:37.289Z,102111.40
2023-01-25T09:48:46.666Z,102102.14
2023-01-25T09:51:54.090Z,102104.45
2023-01-25T09:54:47.536Z,102102.08
2023-01-25T09:57:38.813Z,102105.33
2023-01-25T10:00:39.521Z,102103.02
2023-01-25T10:03:35.104Z,102103.14
2023-01-25T10:06:30.374Z,102099.30
2023-01-25T10:09:43.115Z,102097.48
2023-01-25T10:13:51.086Z,102095.58
2023-01-25T10:16:51.991Z,102083.69
2023-01-25T10:20:20.103Z,102083.48
2023-01-25T10:23:30.232Z,102080.34
2023-01-25T10:26:31.568Z,102075.73
2023-01-25T10:29:27.018Z,102068.11
2023-01-25T10:33:45.829Z,102058.22
2023-01-25T10:36:35.028Z,102052.63
2023-01-25T10:39:23.267Z,102046.64
2023-01-25T10:42:18.144Z,102040.20
2023-01-25T10:45:17.167Z,102037.11
2023-01-25T10:48:14.030Z,102037.26
2023-01-25T10:51:10.679Z,102032.02
2023-01-25T10:54:05.870Z,102032.65
2023-01-25T10:56:53.275Z,102032.54
2023-01-25T10:59:41.294Z,102030.30
2023-01-25T11:02:47.683Z,102026.02
2023-01-25T11:05:39.507Z,102023.30
2023-01-25T11:08:33.654Z,102021.05
2023-01-25T11:11:26.915Z,102008.67
2023-01-25T11:14:18.170Z,102003.43
2023-01-25T11:17:06.626Z,101994.13
2023-01-25T11:20:17.727Z,101989.45
2023-01-25T11:23:20.912Z,101990.39
2023-01-25T11:26:18.893Z,101983.48
2023-01-25T11:29:17.785Z,101972.64
2023-01-25T11:32:16.519Z,101968.55
2023-01-25T11:35:03.786Z,101971.52
2023-01-25T11:38:02.782Z,101960.38
2023-01-25T11:41:34.866Z,101971.42
2023-01-25T11:44:49.208Z,101975.09
2023-01-25T11:47:56.852Z,101968.74
2023-01-25T11:51:05.943Z,101957.02
2023-01-25T11:54:31.677Z,101949.57
2023-01-25T11:58:03.032Z,101948.81
2023-01-25T12:01:40.191Z,101940.23
2023-01-25T12:05:16.268Z,101938.38
2023-01-25T12:08:57.898Z,101935.75
2023-01-25T12:12:18.604Z,101922.56
2023-01-25T12:15:27.694Z,101920.90
2023-01-25T12:18:49.018Z,101916.25
2023-01-25T12:21:49.868Z,101912.87
2023-01-25T12:24:51.594Z,101903.42
2023-01-25T12:27:49.196Z,101905.10
2023-01-25T12:30:59.828Z,101901.84
2023-01-25T12:33:56.571Z,101900.94
2023-01-25T12:36:58.555Z,101902.05
2023-01-25T12:40:12.206Z,101903.95
2023-01-25T12:42:59.351Z,101895.66
2023-01-25T12:45:47.183Z,101892.67
2023-01-25T12:48:37.751Z,101894.59
2023-01-25T12:51:27.366Z,101892.14
2023-01-25T12:54:30.081Z,101892.91
2023-01-25T12:57:29.042Z,101894.08
2023-01-25T13:00:30.745Z,101893.73
2023-01-25T13:03:30.089Z,101884.42
2023-01-25T13:06:25.194Z,101882.31
2023-01-25T13:09:17.172Z,101873.91
2023-01-25T13:12:04.359Z,101873.09
2023-01-25T13:14:52.968Z,101869.09
2023-01-25T13:17:43.727Z,101868.78
2023-01-25T13:20:41.225Z,101857.91
2023-01-25T13:23:43.090Z,101852.72
2023-01-25T13:26:29.881Z,101851.29
2023-01-25T13:40:29.679Z,101836.83
2023-01-25T13:43:21.411Z,101839.16
2023-01-25T13:46:27.471Z,101833.95
2023-01-25T13:49:26.563Z,101828.43
2023-01-25T13:53:04.411Z,101823.34
2023-01-25T13:55:53.665Z,101825.17
2023-01-25T13:58:51.152Z,101816.46
2023-01-25T14:01:36.585Z,101810.73
2023-01-25T14:04:22.749Z,101802.24
2023-01-25T14:07:17.244Z,101802.01
2023-01-25T14:10:12.528Z,101803.06
2023-01-25T14:13:00.682Z,101803.04
2023-01-25T14:16:04.806Z,101799.80
2023-01-25T14:18:50.466Z,101800.33
2023-01-25T14:21:39.994Z,101802.59
2023-01-25T14:24:27.902Z,101798.26
2023-01-25T14:27:22.343Z,101790.81
2023-01-25T14:30:18.705Z,101785.55
2023-01-25T14:33:16.447Z,101776.97
2023-01-25T14:38:43.176Z,101777.84
2023-01-25T14:41:41.928Z,101772.58
2023-01-25T14:44:30.800Z,101767.58
2023-01-25T14:47:31.272Z,101760.72
2023-01-25T14:50:40.617Z,101757.86
2023-01-25T14:53:28.712Z,101750.81
2023-01-25T14:56:45.675Z,101745.48
2023-01-25T14:59:50.296Z,101741.35
2023-01-25T15:20:03.214Z,101722.27
2023-01-25T15:54:51.728Z,101687.13
2023-01-25T15:58:02.171Z,101683.48
2023-01-25T16:11:54.401Z,101673.65
2023-01-25T16:14:41.441Z,101667.61
2023-01-25T16:17:30.600Z,101668.87
2023-01-25T16:20:21.519Z,101667.20
2023-01-25T16:23:08.508Z,101668.72
2023-01-25T16:25:55.136Z,101661.27
2023-01-25T16:28:41.747Z,101661.87
2023-01-25T16:31:32.941Z,101661.89
2023-01-25T16:34:23.193Z,101658.41
2023-01-25T16:37:17.244Z,101655.00
2023-01-25T16:40:03.709Z,101650.08
2023-01-25T16:42:51.846Z,101645.02
2023-01-25T16:45:39.997Z,101641.92
2023-01-25T16:48:26.410Z,101638.00
2023-01-25T16:51:17.002Z,101630.27
2023-01-25T16:54:07.424Z,101629.06
2023-01-25T16:56:55.098Z,101621.14
2023-01-25T16:59:41.531Z,101621.23
2023-01-25T17:02:28.112Z,101614.20
2023-01-25T17:06:02.051Z,101611.27
2023-01-25T17:10:07.956Z,101609.73
2023-01-25T17:14:37.999Z,101610.68
2023-01-25T17:28:26.945Z,101599.73
2023-01-25T17:31:27.107Z,101589.27
2023-01-25T17:35:24.042Z,101588.29
2023-01-25T17:38:10.433Z,101587.19
2023-01-25T17:40:57.004Z,101590.80
2023-01-25T17:43:43.886Z,101593.34
2023-01-25T17:46:33.869Z,101584.91
2023-01-25T18:27:31.566Z,101555.67
2023-01-25T18:30:35.394Z,101558.34
2023-01-25T18:33:21.952Z,101555.16
2023-01-25T18:36:08.805Z,101555.62
2023-01-25T18:38:55.610Z,101554.23
2023-01-25T18:41:44.692Z,101551.64
2023-01-25T18:48:47.560Z,101551.42
2023-01-25T18:51:38.950Z,101548.00
2023-01-25T18:54:31.399Z,101546.31
2023-01-25T18:57:18.395Z,101545.22
2023-01-25T19:00:07.128Z,101547.78
2023-01-25T19:02:54.364Z,101551.23
2023-01-25T19:05:40.913Z,101551.27
2023-01-25T19:08:28.656Z,101539.61
2023-01-25T19:11:17.924Z,101536.84
2023-01-25T19:14:05.236Z,101530.38
2023-01-25T19:16:51.909Z,101529.85
2023-01-25T19:23:54.678Z,101512.60
2023-01-25T19:26:41.721Z,101513.77
2023-01-25T19:29:28.466Z,101513.29
2023-01-25T19:32:15.226Z,101508.35
2023-01-25T19:47:51.558Z,101498.09
2023-01-25T19:50:54.009Z,101488.23
2023-01-25T19:54:31.590Z,101484.59
2023-01-25T19:58:10.625Z,101481.41
2023-01-25T20:01:44.706Z,101476.35
2023-01-25T20:05:58.638Z,101466.74
2023-01-25T20:09:27.947Z,101455.26
2023-01-25T20:12:15.237Z,101456.66
2023-01-25T20:15:02.274Z,101454.43
2023-01-25T20:17:49.999Z,101449.60
2023-01-25T20:20:40.060Z,101446.73
2023-01-25T20:23:27.807Z,101446.54
2023-01-25T20:26:27.470Z,101447.98
2023-01-25T20:30:44.247Z,101442.04
2023-01-25T20:34:12.347Z,101435.40
2023-01-25T20:37:41.603Z,101437.92
2023-01-25T20:41:42.907Z,101430.77
2023-01-25T20:45:21.505Z,101432.93
2023-01-25T20:49:02.313Z,101421.33
2023-01-25T21:16:51.718Z,101414.91
2023-01-25T21:19:48.472Z,101416.70
2023-01-25T21:23:45.433Z,101414.06
2023-01-25T21:27:53.500Z,101404.77
2023-01-25T21:47:36.212Z,101393.90
2023-01-25T22:01:54.543Z,101392.27
2023-01-25T22:33:21.538Z,101374.88
2023-01-25T22:37:39.975Z,101371.40
2023-01-25T22:51:12.670Z,101357.35
2023-01-25T23:18:49.787Z,101324.39
2023-01-25T23:21:47.310Z,101318.23
2023-01-25T23:25:45.847Z,101307.59
2023-01-25T23:29:44.756Z,101302.45
2023-01-25T23:34:11.293Z,101297.23
2023-01-25T23:38:16.000Z,101289.31
2023-01-25T23:42:05.517Z,101288.05
2023-01-25T23:45:25.153Z,101283.44
2023-01-25T23:49:24.338Z,101278.80
2023-01-25T23:53:01.408Z,101272.63
2023-01-25T23:56:56.398Z,101271.90
